createdAt,value
2023-05-14T00:00:30.442Z,96841.22
2023-05-14T00:03:35.396Z,96835.03
2023-05-14T00:06:39.853Z,96837.19
2023-05-14T00:09:44.264Z,96835.56
2023-05-14T00:12:49.039Z,96823.88
2023-05-14T00:15:53.647Z,96832.44
2023-05-14T00:18:58.161Z,96823.03
2023-05-14T00:22:02.511Z,96818.91
2023-05-14T00:25:07.454Z,96808.22
2023-05-14T00:28:11.848Z,96817.41
2023-05-14T00:31:17.080Z,96816.66
2023-05-14T00:34:21.751Z,96806.34
2023-05-14T00:37:26.179Z,96808.03
2023-05-14T00:40:30.646Z,96807.53
2023-05-14T00:43:35.060Z,96798.19
2023-05-14T00:46:39.504Z,96795.53
2023-05-14T00:49:44.238Z,96795.91
2023-05-14T00:52:48.835Z,96789.03
2023-05-14T00:55:53.329Z,96792.25
2023-05-14T00:58:57.724Z,96789.97
2023-05-14T01:02:02.261Z,96788.59
2023-05-14T01:05:07.440Z,96788.69
2023-05-14T01:08:24.239Z,96787.38
2023-05-14T01:11:31.608Z,96784.63
2023-05-14T01:14:52.188Z,96777.22
2023-05-14T01:18:03.927Z,96781.03
2023-05-14T01:21:27.257Z,96778.81
2023-05-14T01:24:31.671Z,96774.09
2023-05-14T01:27:45.539Z,96770.13
2023-05-14T01:31:06.082Z,96768.41
2023-05-14T01:34:11.626Z,96773.03
2023-05-14T01:37:16.669Z,96767.22
2023-05-14T01:40:21.660Z,96768.41
2023-05-14T01:43:26.339Z,96768.31
2023-05-14T01:46:34.386Z,96769.97
2023-05-14T01:49:38.965Z,96761.00
2023-05-14T01:52:43.414Z,96758.94
2023-05-14T01:55:48.101Z,96758.97
2023-05-14T01:58:52.696Z,96768.50
2023-05-14T02:01:57.144Z,96758.31
2023-05-14T02:05:01.735Z,96761.50
2023-05-14T02:08:06.166Z,96757.47
2023-05-14T02:11:10.580Z,96759.50
2023-05-14T02:14:15.615Z,96758.59
2023-05-14T02:17:20.228Z,96758.88
2023-05-14T02:20:24.722Z,96757.63
2023-05-14T02:23:40.346Z,96752.03
2023-05-14T02:26:45.340Z,96740.63
2023-05-14T02:29:49.786Z,96746.53
2023-05-14T02:32:54.276Z,96741.88
2023-05-14T02:35:58.954Z,96738.44
2023-05-14T02:39:04.554Z,96744.72
2023-05-14T02:42:08.989Z,96739.84
2023-05-14T02:45:13.382Z,96741.97
2023-05-14T02:48:17.967Z,96736.09
2023-05-14T02:51:23.665Z,96733.84
2023-05-14T02:54:28.034Z,96737.94
2023-05-14T02:57:32.555Z,96732.41
2023-05-14T03:00:37.227Z,96738.03
2023-05-14T03:03:42.165Z,96742.22
2023-05-14T03:06:47.091Z,96740.34
2023-05-14T03:09:51.479Z,96740.13
2023-05-14T03:12:56.036Z,96729.69
2023-05-14T03:16:00.648Z,96743.91
2023-05-14T03:19:05.220Z,96735.50
2023-05-14T03:22:09.901Z,96736.31
2023-05-14T03:25:14.414Z,96735.53
2023-05-14T03:28:18.912Z,96730.03
2023-05-14T03:31:23.440Z,96733.22
2023-05-14T03:34:27.980Z,96735.84
2023-05-14T03:37:32.474Z,96721.78
2023-05-14T03:40:36.998Z,96736.69
2023-05-14T03:43:41.505Z,96728.88
2023-05-14T03:46:46.312Z,96741.16
2023-05-14T03:49:50.932Z,96738.13
2023-05-14T03:52:55.504Z,96736.75
2023-05-14T03:56:00.559Z,96732.53
2023-05-14T03:59:05.290Z,96723.56
2023-05-14T04:02:10.041Z,96724.88
2023-05-14T04:05:14.652Z,96722.94
2023-05-14T04:08:19.750Z,96728.78
2023-05-14T04:11:24.262Z,96727.63
2023-05-14T04:14:28.769Z,96726.47
2023-05-14T04:17:34.940Z,96729.69
2023-05-14T04:20:40.459Z,96724.75
2023-05-14T04:23:45.230Z,96725.44
2023-05-14T04:26:49.795Z,96730.31
2023-05-14T04:29:54.221Z,96732.34
2023-05-14T04:32:58.809Z,96724.69
2023-05-14T04:36:04.994Z,96731.09
2023-05-14T04:39:09.866Z,96726.28
2023-05-14T04:42:14.454Z,96724.69
2023-05-14T04:45:19.377Z,96725.47
2023-05-14T04:48:23.913Z,96720.81
2023-05-14T04:51:28.590Z,96715.13
2023-05-14T04:54:33.076Z,96711.06
2023-05-14T04:57:37.742Z,96715.41
2023-05-14T05:00:42.309Z,96718.91
2023-05-14T05:03:46.830Z,96720.47
2023-05-14T05:06:51.401Z,96720.03
2023-05-14T05:09:55.952Z,96710.34
2023-05-14T05:13:00.598Z,96724.03
2023-05-14T05:16:05.481Z,96730.53
2023-05-14T05:19:10.112Z,96727.69
2023-05-14T05:22:14.696Z,96721.00
2023-05-14T05:25:19.265Z,96721.81
2023-05-14T05:28:23.731Z,96720.88
2023-05-14T05:31:28.253Z,96706.72
2023-05-14T05:34:32.874Z,96723.75
2023-05-14T05:37:37.470Z,96708.28
2023-05-14T05:40:41.942Z,96709.47
2023-05-14T05:43:46.446Z,96707.78
2023-05-14T05:46:51.078Z,96701.84
2023-05-14T05:49:55.774Z,96707.34
2023-05-14T05:53:00.321Z,96697.72
2023-05-14T05:56:05.080Z,96694.94
2023-05-14T05:59:09.930Z,96697.59
2023-05-14T06:02:14.446Z,96697.44
2023-05-14T06:05:19.539Z,96701.34
2023-05-14T06:08:24.120Z,96704.69
2023-05-14T06:11:28.812Z,96711.63
2023-05-14T06:14:33.585Z,96707.34
2023-05-14T06:17:39.129Z,96707.25
2023-05-14T06:20:44.851Z,96708.00
2023-05-14T06:23:49.357Z,96701.19
2023-05-14T06:26:53.836Z,96689.28
2023-05-14T06:29:58.419Z,96705.81
2023-05-14T06:33:03.021Z,96702.50
2023-05-14T06:36:08.274Z,96695.19
2023-05-14T06:39:12.871Z,96698.13
2023-05-14T06:42:18.179Z,96687.13
2023-05-14T06:45:22.831Z,96682.59
2023-05-14T06:48:29.373Z,96684.81
2023-05-14T06:51:33.971Z,96682.84
2023-05-14T06:54:39.215Z,96677.03
2023-05-14T06:57:44.566Z,96678.09
2023-05-14T07:00:49.018Z,96682.41
2023-05-14T07:03:53.647Z,96671.19
2023-05-14T07:06:58.634Z,96676.78
2023-05-14T07:10:03.736Z,96680.22
2023-05-14T07:13:08.412Z,96680.84
2023-05-14T07:16:13.052Z,96674.59
2023-05-14T07:19:17.565Z,96661.72
2023-05-14T07:22:22.479Z,96665.19
2023-05-14T07:25:27.271Z,96668.09
2023-05-14T07:28:32.216Z,96661.19
2023-05-14T07:31:36.867Z,96651.81
2023-05-14T07:34:41.365Z,96644.44
2023-05-14T07:37:46.133Z,96655.19
2023-05-14T07:40:50.682Z,96635.25
2023-05-14T07:43:55.254Z,96645.28
2023-05-14T07:46:59.794Z,96633.47
2023-05-14T07:50:04.599Z,96632.00
2023-05-14T07:53:09.130Z,96624.94
2023-05-14T07:56:13.686Z,96631.75
2023-05-14T07:59:18.308Z,96621.72
2023-05-14T08:02:23.055Z,96630.63
2023-05-14T08:05:27.634Z,96616.41
2023-05-14T08:08:32.444Z,96623.16
2023-05-14T08:11:36.931Z,96608.19
2023-05-14T08:14:41.487Z,96606.25
2023-05-14T08:17:46.036Z,96616.38
2023-05-14T08:20:51.240Z,96601.28
2023-05-14T08:23:55.782Z,96597.22
2023-05-14T08:27:00.600Z,96592.88
2023-05-14T08:30:06.636Z,96587.78
2023-05-14T08:33:11.251Z,96579.75
2023-05-14T08:36:15.791Z,96582.59
2023-05-14T08:39:20.366Z,96571.59
2023-05-14T08:42:27.032Z,96569.03
2023-05-14T08:45:34.805Z,96569.03
2023-05-14T08:48:42.543Z,96563.72
2023-05-14T08:51:48.440Z,96557.50
2023-05-14T08:54:54.028Z,96548.31
2023-05-14T08:57:58.721Z,96549.09
2023-05-14T09:01:03.744Z,96556.03
2023-05-14T09:04:09.426Z,96563.16
2023-05-14T09:07:14.015Z,96545.63
2023-05-14T09:10:18.766Z,96538.69
2023-05-14T09:13:23.304Z,96539.84
2023-05-14T09:16:28.393Z,96545.00
2023-05-14T09:19:33.142Z,96535.47
2023-05-14T09:22:38.768Z,96539.69
2023-05-14T09:25:43.589Z,96541.66
2023-05-14T09:28:48.192Z,96552.00
2023-05-14T09:31:53.817Z,96552.75
2023-05-14T09:34:58.486Z,96544.75
2023-05-14T09:38:03.022Z,96526.72
2023-05-14T09:41:07.620Z,96534.72
2023-05-14T09:44:12.238Z,96540.28
2023-05-14T09:47:17.044Z,96531.88
2023-05-14T09:50:21.816Z,96526.03
2023-05-14T09:53:26.368Z,96531.09
2023-05-14T09:56:31.104Z,96520.84
2023-05-14T09:59:35.707Z,96533.19
2023-05-14T10:02:42.676Z,96531.50
2023-05-14T10:05:49.520Z,96527.72
2023-05-14T10:08:56.765Z,96511.50
2023-05-14T10:12:01.745Z,96524.69
2023-05-14T10:15:45.446Z,96511.22
2023-05-14T10:18:56.982Z,96514.03
2023-05-14T10:22:07.864Z,96523.88
2023-05-14T10:25:13.341Z,96515.28
2023-05-14T10:28:18.045Z,96504.88
2023-05-14T10:31:51.681Z,96513.81
2023-05-14T10:34:56.240Z,96514.50
2023-05-14T10:38:01.008Z,96511.16
2023-05-14T10:41:12.130Z,96509.34
2023-05-14T10:44:17.208Z,96505.44
2023-05-14T10:47:22.473Z,96492.31
2023-05-14T10:50:27.116Z,96491.97
2023-05-14T10:53:36.787Z,96502.75
2023-05-14T10:56:45.678Z,96489.88
2023-05-14T10:59:55.316Z,96495.81
2023-05-14T11:03:00.604Z,96480.94
2023-05-14T11:06:07.098Z,96482.31
2023-05-14T11:09:15.910Z,96486.63
2023-05-14T11:12:21.763Z,96479.63
2023-05-14T11:15:26.695Z,96486.44
2023-05-14T11:18:40.768Z,96484.22
2023-05-14T11:21:45.427Z,96493.59
2023-05-14T11:24:50.625Z,96493.28
2023-05-14T11:27:58.270Z,96493.22
2023-05-14T11:31:03.295Z,96476.84
2023-05-14T11:34:08.031Z,96481.53
2023-05-14T11:37:14.836Z,96485.50
2023-05-14T11:40:19.558Z,96483.56
2023-05-14T11:43:24.426Z,96482.06
2023-05-14T11:46:30.930Z,96478.84
2023-05-14T11:49:37.573Z,96472.50
2023-05-14T11:52:42.225Z,96473.03
2023-05-14T11:55:47.588Z,96475.94
2023-05-14T11:58:58.539Z,96474.72
2023-05-14T12:02:04.953Z,96474.16
2023-05-14T12:05:13.420Z,96469.13
2023-05-14T12:08:22.732Z,96477.97
2023-05-14T12:11:31.832Z,96478.41
2023-05-14T12:14:39.056Z,96471.88
2023-05-14T12:17:49.857Z,96486.91
2023-05-14T12:20:55.122Z,96472.94
2023-05-14T12:24:02.652Z,96475.25
2023-05-14T12:27:09.412Z,96458.56
2023-05-14T12:33:23.778Z,96470.78
2023-05-14T12:36:28.842Z,96462.75
2023-05-14T12:39:34.697Z,96465.53
2023-05-14T12:42:39.402Z,96468.28
2023-05-14T12:45:44.172Z,96461.56
2023-05-14T12:48:49.275Z,96466.22
2023-05-14T12:52:07.742Z,96464.81
2023-05-14T12:55:19.869Z,96471.69
2023-05-14T12:58:24.378Z,96463.78
2023-05-14T13:01:28.949Z,96462.66
2023-05-14T13:04:34.118Z,96455.59
2023-05-14T13:07:39.073Z,96458.44
2023-05-14T13:10:44.846Z,96457.00
2023-05-14T13:13:49.410Z,96456.66
2023-05-14T13:16:54.017Z,96456.97
2023-05-14T13:19:58.817Z,96448.81
2023-05-14T13:23:03.311Z,96458.09
2023-05-14T13:26:07.933Z,96464.28
2023-05-14T13:29:12.408Z,96453.69
2023-05-14T13:32:16.893Z,96453.88
2023-05-14T13:35:21.703Z,96452.50
2023-05-14T13:38:26.391Z,96452.91
2023-05-14T13:41:34.799Z,96441.66
2023-05-14T13:44:39.284Z,96447.75
2023-05-14T13:47:44.198Z,96448.28
2023-05-14T13:50:49.584Z,96441.84
2023-05-14T13:56:59.514Z,96433.16
2023-05-14T14:00:05.385Z,96445.97
2023-05-14T14:03:09.984Z,96450.19
2023-05-14T14:06:14.511Z,96450.22
2023-05-14T14:09:18.943Z,96447.00
2023-05-14T14:12:23.564Z,96455.75
2023-05-14T14:15:28.094Z,96445.63
2023-05-14T14:18:32.800Z,96436.09
2023-05-14T14:21:39.682Z,96448.44
2023-05-14T14:24:44.255Z,96444.59
2023-05-14T14:27:49.264Z,96455.47
2023-05-14T14:30:53.881Z,96451.72
2023-05-14T14:33:58.414Z,96459.41
2023-05-14T14:37:02.963Z,96434.03
2023-05-14T14:40:09.455Z,96460.66
2023-05-14T14:43:14.308Z,96460.09
2023-05-14T14:46:18.825Z,96461.41
2023-05-14T14:49:23.673Z,96461.09
2023-05-14T14:52:28.516Z,96463.13
2023-05-14T14:55:33.002Z,96469.75
2023-05-14T14:58:38.294Z,96457.78
2023-05-14T15:01:44.116Z,96451.69
2023-05-14T15:04:48.699Z,96464.44
2023-05-14T15:07:53.262Z,96463.63
2023-05-14T15:10:57.761Z,96456.00
2023-05-14T15:14:03.331Z,96455.13
2023-05-14T15:17:07.901Z,96445.78
2023-05-14T15:20:12.820Z,96445.75
2023-05-14T15:23:17.593Z,96463.56
2023-05-14T15:26:22.816Z,96466.19
2023-05-14T15:29:27.447Z,96463.94
2023-05-14T15:32:32.232Z,96459.69
2023-05-14T15:35:36.917Z,96450.22
2023-05-14T15:38:42.218Z,96457.06
2023-05-14T15:41:46.850Z,96453.13
2023-05-14T15:44:51.474Z,96449.25
2023-05-14T15:47:56.114Z,96452.03
2023-05-14T15:51:00.972Z,96454.47
2023-05-14T15:54:05.626Z,96448.59
2023-05-14T15:57:10.499Z,96458.31
2023-05-14T16:00:15.387Z,96459.19
2023-05-14T16:03:20.057Z,96456.00
2023-05-14T16:06:25.905Z,96455.06
2023-05-14T16:09:30.772Z,96458.06
2023-05-14T16:12:35.329Z,96457.13
2023-05-14T16:15:40.149Z,96448.31
2023-05-14T16:18:44.687Z,96453.97
2023-05-14T16:21:49.289Z,96441.84
2023-05-14T16:24:53.820Z,96445.53
2023-05-14T16:27:58.826Z,96441.31
2023-05-14T16:31:03.899Z,96436.94
2023-05-14T16:34:08.430Z,96434.34
2023-05-14T16:37:13.751Z,96430.13
2023-05-14T16:40:19.600Z,96430.91
2023-05-14T16:43:24.249Z,96428.44
2023-05-14T16:46:29.141Z,96429.53
2023-05-14T16:49:33.898Z,96428.53
2023-05-14T16:52:38.707Z,96421.59
2023-05-14T16:55:43.158Z,96411.13
2023-05-14T16:58:47.698Z,96409.25
2023-05-14T17:01:52.609Z,96415.44
2023-05-14T17:04:57.343Z,96409.25
2023-05-14T17:08:01.988Z,96413.28
2023-05-14T17:11:06.604Z,96387.47
2023-05-14T17:14:11.128Z,96385.19
2023-05-14T17:17:15.834Z,96395.13
2023-05-14T17:20:20.835Z,96403.97
2023-05-14T17:23:25.393Z,96397.06
2023-05-14T17:26:29.899Z,96404.13
2023-05-14T17:29:34.489Z,96407.16
2023-05-14T17:32:39.158Z,96391.31
2023-05-14T17:35:45.648Z,96394.59
2023-05-14T17:38:50.071Z,96382.41
2023-05-14T17:41:54.651Z,96395.50
2023-05-14T17:44:59.066Z,96397.28
2023-05-14T17:48:03.858Z,96394.84
2023-05-14T17:51:08.399Z,96385.88
2023-05-14T17:54:12.910Z,96385.56
2023-05-14T17:57:17.555Z,96387.84
2023-05-14T18:00:22.535Z,96373.41
2023-05-14T18:03:27.345Z,96384.63
2023-05-14T18:06:32.264Z,96383.06
2023-05-14T18:09:36.815Z,96384.88
2023-05-14T18:12:41.645Z,96384.16
2023-05-14T18:15:46.354Z,96376.56
2023-05-14T18:18:50.913Z,96380.50
2023-05-14T18:21:55.474Z,96380.50
2023-05-14T18:25:00.109Z,96376.75
2023-05-14T18:28:04.937Z,96374.47
2023-05-14T18:31:09.399Z,96380.94
2023-05-14T18:34:14.028Z,96385.03
2023-05-14T18:37:18.638Z,96375.19
2023-05-14T18:40:23.180Z,96380.72
2023-05-14T18:43:27.627Z,96374.84
2023-05-14T18:46:32.135Z,96376.53
2023-05-14T18:49:38.624Z,96375.22
2023-05-14T18:52:43.203Z,96376.38
2023-05-14T18:55:47.864Z,96378.91
2023-05-14T18:58:52.811Z,96369.09
2023-05-14T19:01:57.376Z,96388.41
2023-05-14T19:05:01.857Z,96384.34
2023-05-14T19:08:07.425Z,96392.91
2023-05-14T19:11:11.748Z,96389.25
2023-05-14T19:14:16.127Z,96387.78
2023-05-14T19:17:20.669Z,96391.16
2023-05-14T19:20:25.392Z,96393.09
2023-05-14T19:23:31.114Z,96400.69
2023-05-14T19:26:35.605Z,96393.69
2023-05-14T19:29:39.973Z,96395.66
2023-05-14T19:32:44.415Z,96395.19
2023-05-14T19:35:48.858Z,96388.47
2023-05-14T19:38:53.196Z,96385.53
2023-05-14T19:41:57.917Z,96389.31
2023-05-14T19:45:02.432Z,96384.34
2023-05-14T19:48:07.017Z,96385.25
2023-05-14T19:51:11.556Z,96383.34
2023-05-14T19:54:15.997Z,96381.44
2023-05-14T19:57:20.816Z,96384.78
2023-05-14T20:00:26.486Z,96379.13
2023-05-14T20:03:32.428Z,96373.53
2023-05-14T20:06:38.120Z,96371.31
2023-05-14T20:09:42.719Z,96377.38
2023-05-14T20:12:47.292Z,96375.91
2023-05-14T20:15:51.698Z,96370.53
2023-05-14T20:18:56.509Z,96354.84
2023-05-14T20:22:01.040Z,96357.78
2023-05-14T20:25:05.960Z,96359.78
2023-05-14T20:28:10.651Z,96363.38
2023-05-14T20:31:15.145Z,96361.34
2023-05-14T20:34:19.977Z,96361.34
2023-05-14T20:37:25.410Z,96353.94
2023-05-14T20:40:30.157Z,96353.25
2023-05-14T20:43:34.575Z,96352.38
2023-05-14T20:46:39.025Z,96350.22
2023-05-14T20:49:43.396Z,96354.00
2023-05-14T20:52:47.854Z,96348.50
2023-05-14T20:55:52.287Z,96351.81
2023-05-14T20:58:57.000Z,96344.22
2023-05-14T21:02:01.498Z,96343.94
2023-05-14T21:05:06.331Z,96341.84
2023-05-14T21:08:10.864Z,96339.72
2023-05-14T21:11:15.317Z,96332.13
2023-05-14T21:14:19.964Z,96334.28
2023-05-14T21:17:24.424Z,96332.47
2023-05-14T21:20:28.839Z,96330.47
2023-05-14T21:23:33.244Z,96334.63
2023-05-14T21:26:37.695Z,96336.72
2023-05-14T21:29:42.230Z,96336.19
2023-05-14T21:32:46.650Z,96332.13
2023-05-14T21:35:51.042Z,96333.41
2023-05-14T21:38:55.415Z,96331.16
2023-05-14T21:41:59.869Z,96327.44
2023-05-14T21:45:04.363Z,96318.63
2023-05-14T21:48:08.887Z,96322.47
2023-05-14T21:51:13.340Z,96323.22
2023-05-14T21:54:17.909Z,96322.28
2023-05-14T21:57:22.750Z,96315.72
2023-05-14T22:00:28.072Z,96319.41
2023-05-14T22:03:32.464Z,96316.09
2023-05-14T22:06:37.101Z,96315.81
2023-05-14T22:09:41.564Z,96318.44
2023-05-14T22:12:45.982Z,96311.31
2023-05-14T22:15:58.136Z,96311.47
2023-05-14T22:19:09.602Z,96303.81
2023-05-14T22:22:14.161Z,96309.69
2023-05-14T22:25:18.608Z,96293.88
2023-05-14T22:28:22.949Z,96299.41
2023-05-14T22:31:27.348Z,96289.91
2023-05-14T22:34:31.826Z,96292.66
2023-05-14T22:37:36.284Z,96299.06
2023-05-14T22:40:40.770Z,96286.56
2023-05-14T22:43:48.442Z,96286.44
2023-05-14T22:46:52.888Z,96285.50
2023-05-14T22:49:57.200Z,96284.59
2023-05-14T22:53:01.614Z,96285.44
2023-05-14T22:56:06.147Z,96278.16
2023-05-14T22:59:10.608Z,96277.81
2023-05-14T23:02:15.312Z,96281.69
2023-05-14T23:05:19.659Z,96281.88
2023-05-14T23:08:24.081Z,96285.94
2023-05-14T23:11:28.592Z,96275.81
2023-05-14T23:14:33.261Z,96271.19
2023-05-14T23:17:38.272Z,96268.56
2023-05-14T23:20:42.771Z,96266.34
2023-05-14T23:23:48.430Z,96260.94
2023-05-14T23:26:52.969Z,96260.94
2023-05-14T23:29:57.296Z,96260.94
2023-05-14T23:33:01.852Z,96260.72
2023-05-14T23:36:06.558Z,96255.56
2023-05-14T23:39:11.129Z,96252.34
2023-05-14T23:42:15.673Z,96251.63
2023-05-14T23:45:20.140Z,96250.66
2023-05-14T23:48:25.013Z,96250.41
2023-05-14T23:51:29.356Z,96248.94
2023-05-14T23:54:33.743Z,96246.41
2023-05-14T23:57:38.184Z,96243.44
